Time;durP1;ratioP1;P1;durP2;ratioP2;P2;SDS_P1;SDS_P2;PMS_P1;PMS_P2;Temp;Humidity;BMP_temperature;BMP_pressure;BME280_temperature;BME280_humidity;BME280_pressure;Samples;Min_cycle;Max_cycle;Signal;HPM_P1;HPM_P2
2023/08/31 00:01:45;;;;;;;4.28;0.40;;;;;;;;;;5111483;28;20494;-71
2023/08/31 00:04:14;;;;;;;8.85;0.68;;;;;;;;;;5093719;28;20048;-71
2023/08/31 00:06:44;;;;;;;1.52;0.50;;;;;;;;;;5088239;28;20055;-71
2023/08/31 00:09:12;;;;;;;8.98;0.70;;;;;;;;;;5091544;28;20051;-72
2023/08/31 00:11:40;;;;;;;1.95;0.30;;;;;;;;;;5087517;28;20466;-71
2023/08/31 00:14:07;;;;;;;4.18;0.40;;;;;;;;;;5093204;28;20479;-71
2023/08/31 00:16:34;;;;;;;0.90;0.40;;;;;;;;;;5112033;28;20052;-72
2023/08/31 00:19:02;;;;;;;3.20;0.80;;;;;;;;;;5108532;28;20560;-71
2023/08/31 00:21:30;;;;;;;1.65;0.30;;;;;;;;;;5092316;28;20047;-72
2023/08/31 00:23:59;;;;;;;3.67;0.50;;;;;;;;;;5093270;28;20495;-73
2023/08/31 00:26:26;;;;;;;4.93;0.57;;;;;;;;;;5111195;28;20048;-73
2023/08/31 00:28:53;;;;;;;0.77;0.40;;;;;;;;;;5092893;28;20162;-73
2023/08/31 00:31:21;;;;;;;1.42;0.43;;;;;;;;;;5092825;28;20056;-73
2023/08/31 00:33:49;;;;;;;1.17;0.40;;;;;;;;;;5111472;28;20093;-72
2023/08/31 00:36:18;;;;;;;1.73;0.80;;;;;;;;;;5093819;28;20055;-72
2023/08/31 00:38:45;;;;;;;3.47;0.40;;;;;;;;;;5096915;28;20509;-72
2023/08/31 00:41:13;;;;;;;1.13;0.40;;;;;;;;;;5111727;28;20501;-71
2023/08/31 00:43:41;;;;;;;1.40;0.50;;;;;;;;;;5110967;28;20481;-71
2023/08/31 00:46:09;;;;;;;3.00;0.40;;;;;;;;;;5093424;28;20066;-72
2023/08/31 00:48:36;;;;;;;0.93;0.40;;;;;;;;;;5113268;27;20050;-71
2023/08/31 00:51:06;;;;;;;2.75;0.52;;;;;;;;;;5092337;28;20085;-72
2023/08/31 00:53:33;;;;;;;3.35;0.40;;;;;;;;;;5109343;28;20040;-72
2023/08/31 00:56:00;;;;;;;3.13;0.40;;;;;;;;;;5093002;28;20167;-71
2023/08/31 00:58:30;;;;;;;4.47;0.40;;;;;;;;;;5111357;28;20044;-72
2023/08/31 01:01:03;;;;;;;2.90;0.35;;;;;;;;;;5110709;28;20052;-72
2023/08/31 01:03:40;;;;;;;2.25;0.30;;;;;;;;;;5110979;28;20071;-71
2023/08/31 01:06:12;;;;;;;1.70;0.40;;;;;;;;;;5103899;28;20062;-71
2023/08/31 01:08:42;;;;;;;1.60;0.40;;;;;;;;;;5110250;28;20438;-70
2023/08/31 01:11:16;;;;;;;4.13;0.50;;;;;;;;;;5093604;28;20059;-70
2023/08/31 01:13:46;;;;;;;0.85;0.43;;;;;;;;;;5092274;28;20044;-71
2023/08/31 01:16:15;;;;;;;1.40;0.47;;;;;;;;;;5110833;28;20487;-71
2023/08/31 01:18:43;;;;;;;2.05;0.40;;;;;;;;;;5109575;28;20082;-71
2023/08/31 01:21:13;;;;;;;1.13;0.50;;;;;;;;;;5111247;28;20047;-72
2023/08/31 01:23:53;;;;;;;3.60;0.50;;;;;;;;;;5109279;28;20092;-72
2023/08/31 01:26:20;;;;;;;0.82;0.50;;;;;;;;;;5109590;28;20043;-72
2023/08/31 01:28:48;;;;;;;1.75;0.60;;;;;;;;;;5111247;28;20060;-72
2023/08/31 01:31:16;;;;;;;2.13;0.43;;;;;;;;;;5110118;28;20044;-71
2023/08/31 01:33:43;;;;;;;3.80;0.82;;;;;;;;;;5108185;28;20075;-71
2023/08/31 01:36:14;;;;;;;2.78;0.63;;;;;;;;;;5110415;28;20089;-71
2023/08/31 01:38:43;;;;;;;2.50;0.57;;;;;;;;;;5109028;28;20035;-70
2023/08/31 01:41:15;;;;;;;1.55;0.40;;;;;;;;;;5104679;28;20123;-71
2023/08/31 01:43:42;;;;;;;0.40;0.32;;;;;;;;;;5107582;28;20377;-69
2023/08/31 01:46:10;;;;;;;0.70;0.30;;;;;;;;;;5092830;28;20059;-72
2023/08/31 01:48:40;;;;;;;0.85;0.40;;;;;;;;;;5109985;28;20074;-71
2023/08/31 01:51:08;;;;;;;0.60;0.30;;;;;;;;;;5089306;28;20067;-70
2023/08/31 01:53:36;;;;;;;1.80;0.30;;;;;;;;;;5109476;28;20079;-71
2023/08/31 01:56:04;;;;;;;2.42;0.50;;;;;;;;;;5103856;28;20059;-70
2023/08/31 01:58:33;;;;;;;3.15;0.47;;;;;;;;;;5093796;28;20480;-70
2023/08/31 02:01:00;;;;;;;1.98;0.47;;;;;;;;;;5107658;28;20051;-70
2023/08/31 02:03:28;;;;;;;1.25;0.43;;;;;;;;;;5109532;28;20044;-71
2023/08/31 02:05:55;;;;;;;1.15;0.40;;;;;;;;;;5110363;28;20044;-69
2023/08/31 02:08:22;;;;;;;0.82;0.30;;;;;;;;;;5109952;28;20052;-71
2023/08/31 02:10:50;;;;;;;1.17;0.40;;;;;;;;;;5109848;28;20487;-69
2023/08/31 02:13:17;;;;;;;2.40;0.50;;;;;;;;;;5089356;28;20100;-70
2023/08/31 02:15:46;;;;;;;3.20;0.63;;;;;;;;;;5110334;28;20064;-71
2023/08/31 02:18:13;;;;;;;1.50;0.40;;;;;;;;;;5109526;28;20549;-71
2023/08/31 02:20:41;;;;;;;0.85;0.30;;;;;;;;;;5092014;28;20047;-70
2023/08/31 02:23:09;;;;;;;0.70;0.40;;;;;;;;;;5090993;28;20491;-71
2023/08/31 02:25:36;;;;;;;5.43;0.60;;;;;;;;;;5087554;28;20044;-70
2023/08/31 02:28:04;;;;;;;2.13;0.82;;;;;;;;;;5091164;28;20054;-70
2023/08/31 02:30:31;;;;;;;2.85;0.43;;;;;;;;;;5088608;28;20054;-70
2023/08/31 02:33:00;;;;;;;0.90;0.40;;;;;;;;;;5091751;28;20098;-68
2023/08/31 02:35:27;;;;;;;2.13;0.40;;;;;;;;;;5092720;28;20058;-70
2023/08/31 02:37:54;;;;;;;1.55;0.60;;;;;;;;;;5096048;28;20491;-69
2023/08/31 02:40:22;;;;;;;1.75;0.75;;;;;;;;;;5096136;28;20054;-70
2023/08/31 02:42:52;;;;;;;0.75;0.50;;;;;;;;;;5094486;28;20047;-70
2023/08/31 02:45:19;;;;;;;1.23;0.50;;;;;;;;;;5096500;28;20127;-69
2023/08/31 02:47:47;;;;;;;1.20;0.50;;;;;;;;;;5094067;28;20039;-70
2023/08/31 02:50:15;;;;;;;2.95;0.43;;;;;;;;;;5099633;28;20055;-70
2023/08/31 02:52:43;;;;;;;1.30;0.30;;;;;;;;;;5111057;28;20612;-69
2023/08/31 02:55:10;;;;;;;1.85;0.50;;;;;;;;;;5089728;28;20056;-71
2023/08/31 02:57:38;;;;;;;3.28;0.50;;;;;;;;;;5094304;28;20466;-70
2023/08/31 03:00:10;;;;;;;4.43;0.60;;;;;;;;;;5096098;28;20059;-70
2023/08/31 03:02:37;;;;;;;2.92;0.55;;;;;;;;;;5113317;28;20075;-71
2023/08/31 03:05:05;;;;;;;3.22;0.57;;;;;;;;;;5094460;28;20070;-70
2023/08/31 03:07:33;;;;;;;4.80;0.75;;;;;;;;;;5094851;28;20051;-70
2023/08/31 03:10:01;;;;;;;2.17;0.60;;;;;;;;;;5113685;28;20116;-70
2023/08/31 03:12:28;;;;;;;2.60;0.60;;;;;;;;;;5094246;28;20051;-70
2023/08/31 03:14:55;;;;;;;0.45;0.40;;;;;;;;;;5095353;28;20040;-71
2023/08/31 03:17:22;;;;;;;1.60;0.60;;;;;;;;;;5112031;28;20055;-70
2023/08/31 03:19:50;;;;;;;1.40;0.57;;;;;;;;;;5113505;28;20040;-69
2023/08/31 03:22:17;;;;;;;2.10;0.40;;;;;;;;;;5093394;28;20044;-70
2023/08/31 03:24:46;;;;;;;1.20;0.55;;;;;;;;;;5095274;28;20040;-71
2023/08/31 03:27:13;;;;;;;3.97;0.57;;;;;;;;;;5095271;28;20055;-71
2023/08/31 03:29:41;;;;;;;2.95;0.65;;;;;;;;;;5102122;28;20399;-71
2023/08/31 03:32:08;;;;;;;0.95;0.50;;;;;;;;;;5097505;28;20100;-70
2023/08/31 03:34:35;;;;;;;1.02;0.50;;;;;;;;;;5092416;28;20051;-70
2023/08/31 03:37:02;;;;;;;1.10;0.38;;;;;;;;;;5094010;28;20054;-70
2023/08/31 03:39:30;;;;;;;5.25;0.90;;;;;;;;;;5095762;28;20066;-69
2023/08/31 03:41:58;;;;;;;2.08;0.50;;;;;;;;;;5095135;28;20048;-71
2023/08/31 03:44:26;;;;;;;5.20;0.60;;;;;;;;;;5111573;28;20040;-71
2023/08/31 03:46:53;;;;;;;0.68;0.43;;;;;;;;;;5094256;28;20495;-71
2023/08/31 03:49:20;;;;;;;1.30;0.60;;;;;;;;;;5092066;28;20050;-70
2023/08/31 03:51:48;;;;;;;4.38;0.47;;;;;;;;;;5112637;28;20059;-70
2023/08/31 03:54:16;;;;;;;2.20;0.68;;;;;;;;;;5091834;28;20044;-71
2023/08/31 03:56:43;;;;;;;1.73;0.50;;;;;;;;;;5094511;28;20139;-71
2023/08/31 03:59:11;;;;;;;1.38;0.50;;;;;;;;;;5093662;28;20051;-71
2023/08/31 04:01:39;;;;;;;2.80;0.77;;;;;;;;;;5092691;28;20047;-72
2023/08/31 04:04:06;;;;;;;0.95;0.50;;;;;;;;;;5093522;28;20387;-71
2023/08/31 04:06:33;;;;;;;4.18;0.70;;;;;;;;;;5094241;28;20257;-71
2023/08/31 04:09:00;;;;;;;1.85;0.65;;;;;;;;;;5093460;28;20047;-71
2023/08/31 04:11:28;;;;;;;3.25;0.60;;;;;;;;;;5093925;28;20059;-72
2023/08/31 04:13:55;;;;;;;2.33;0.60;;;;;;;;;;5094159;28;20060;-72
2023/08/31 04:16:23;;;;;;;2.05;0.60;;;;;;;;;;5094401;28;20055;-71
2023/08/31 04:18:52;;;;;;;1.80;0.60;;;;;;;;;;5110867;28;20121;-71
2023/08/31 04:21:19;;;;;;;5.28;0.63;;;;;;;;;;5094299;28;20101;-71
2023/08/31 04:23:46;;;;;;;2.45;0.65;;;;;;;;;;5092082;28;20051;-72
2023/08/31 04:26:14;;;;;;;1.85;0.57;;;;;;;;;;5112156;28;20062;-72
2023/08/31 04:28:42;;;;;;;1.45;0.68;;;;;;;;;;5097996;28;20044;-71
2023/08/31 04:31:09;;;;;;;0.73;0.45;;;;;;;;;;5110894;28;20047;-71
2023/08/31 04:33:39;;;;;;;2.08;0.45;;;;;;;;;;5112453;28;20495;-72
2023/08/31 04:36:06;;;;;;;2.53;0.70;;;;;;;;;;5092815;28;20044;-72
2023/08/31 04:38:34;;;;;;;1.88;0.50;;;;;;;;;;5112489;27;20051;-72
2023/08/31 04:41:02;;;;;;;1.50;0.70;;;;;;;;;;5111288;28;20051;-71
2023/08/31 04:43:29;;;;;;;3.90;0.75;;;;;;;;;;5111784;28;20123;-72
2023/08/31 04:45:57;;;;;;;2.58;0.55;;;;;;;;;;5093129;28;20502;-72
2023/08/31 04:48:24;;;;;;;1.80;0.60;;;;;;;;;;5092650;28;20056;-72
2023/08/31 04:50:54;;;;;;;3.15;0.73;;;;;;;;;;5092989;28;20059;-72
2023/08/31 04:53:21;;;;;;;0.93;0.55;;;;;;;;;;5105063;28;20146;-71
2023/08/31 04:55:49;;;;;;;1.17;0.70;;;;;;;;;;5111201;28;20062;-72
2023/08/31 04:58:16;;;;;;;3.20;0.73;;;;;;;;;;5091986;28;20055;-71
2023/08/31 05:00:44;;;;;;;2.50;0.80;;;;;;;;;;5093704;28;20051;-72
2023/08/31 05:03:11;;;;;;;2.63;0.73;;;;;;;;;;5091475;28;20072;-72
2023/08/31 05:05:39;;;;;;;5.90;0.75;;;;;;;;;;5110666;28;20379;-71
2023/08/31 05:08:08;;;;;;;1.75;0.60;;;;;;;;;;5110273;28;20052;-72
2023/08/31 05:10:35;;;;;;;1.85;0.73;;;;;;;;;;5106920;28;20097;-72
2023/08/31 05:13:04;;;;;;;1.08;0.52;;;;;;;;;;5111216;28;20052;-70
2023/08/31 05:15:33;;;;;;;4.53;0.60;;;;;;;;;;5109985;28;20059;-72
2023/08/31 05:18:00;;;;;;;1.75;0.57;;;;;;;;;;5111018;28;20143;-71
2023/08/31 05:20:28;;;;;;;2.63;0.50;;;;;;;;;;5108854;28;20044;-72
2023/08/31 05:22:55;;;;;;;1.45;0.60;;;;;;;;;;5110511;28;20090;-72
2023/08/31 05:25:23;;;;;;;1.20;0.80;;;;;;;;;;5110149;28;20128;-72
2023/08/31 05:27:51;;;;;;;2.55;0.65;;;;;;;;;;5110624;28;20047;-72
2023/08/31 05:30:18;;;;;;;1.52;0.65;;;;;;;;;;5110195;28;20054;-72
2023/08/31 05:32:45;;;;;;;1.20;0.55;;;;;;;;;;5110761;28;20043;-73
2023/08/31 05:35:12;;;;;;;3.00;0.68;;;;;;;;;;5109912;28;20376;-73
2023/08/31 05:37:40;;;;;;;2.63;0.60;;;;;;;;;;5111070;28;20051;-71
2023/08/31 05:40:10;;;;;;;0.93;0.50;;;;;;;;;;5109599;28;20039;-72
2023/08/31 05:42:39;;;;;;;5.38;0.70;;;;;;;;;;5110370;28;20059;-73
2023/08/31 05:45:06;;;;;;;2.00;0.70;;;;;;;;;;5109821;28;20048;-72
2023/08/31 05:47:34;;;;;;;1.15;0.70;;;;;;;;;;5109203;28;20514;-71
2023/08/31 05:50:02;;;;;;;4.47;0.73;;;;;;;;;;5110804;27;20053;-71
2023/08/31 05:52:30;;;;;;;1.90;0.57;;;;;;;;;;5109131;28;20055;-71
2023/08/31 05:54:57;;;;;;;2.70;0.70;;;;;;;;;;5093166;28;20054;-72
2023/08/31 05:57:24;;;;;;;3.85;0.65;;;;;;;;;;5109199;28;20048;-71
2023/08/31 05:59:53;;;;;;;3.33;0.50;;;;;;;;;;5110892;28;20043;-72
2023/08/31 06:02:20;;;;;;;1.95;0.50;;;;;;;;;;5091281;28;20149;-70
2023/08/31 06:04:47;;;;;;;0.85;0.43;;;;;;;;;;5094967;28;20043;-71
2023/08/31 06:07:14;;;;;;;4.95;0.80;;;;;;;;;;5092806;28;20142;-69
2023/08/31 06:09:42;;;;;;;2.25;0.70;;;;;;;;;;5108784;28;20047;-72
2023/08/31 06:12:09;;;;;;;2.00;0.55;;;;;;;;;;5109358;28;20052;-68
2023/08/31 06:14:37;;;;;;;1.35;0.60;;;;;;;;;;5110058;28;20071;-72
2023/08/31 06:17:05;;;;;;;1.65;0.77;;;;;;;;;;5109396;28;20047;-71
2023/08/31 06:19:33;;;;;;;1.95;0.43;;;;;;;;;;5103150;28;20035;-71
2023/08/31 06:22:00;;;;;;;3.28;0.57;;;;;;;;;;5088766;28;20064;-71
2023/08/31 06:24:27;;;;;;;2.10;0.57;;;;;;;;;;5109630;28;20048;-70
2023/08/31 06:26:54;;;;;;;3.55;0.43;;;;;;;;;;5108898;28;20055;-71
2023/08/31 06:29:22;;;;;;;1.98;0.60;;;;;;;;;;5110264;28;20052;-70
2023/08/31 06:31:49;;;;;;;3.90;0.80;;;;;;;;;;5109325;28;20059;-71
2023/08/31 06:34:18;;;;;;;2.58;0.88;;;;;;;;;;5092166;28;20047;-71
2023/08/31 06:36:45;;;;;;;3.38;0.70;;;;;;;;;;5091234;28;20382;-70
2023/08/31 06:39:12;;;;;;;4.55;0.60;;;;;;;;;;5091954;28;20513;-71
2023/08/31 06:41:40;;;;;;;2.35;0.60;;;;;;;;;;5107647;28;20043;-71
2023/08/31 06:44:07;;;;;;;2.05;0.60;;;;;;;;;;5109954;28;20078;-72
2023/08/31 06:46:37;;;;;;;3.35;0.65;;;;;;;;;;5109306;28;20071;-71
2023/08/31 06:49:05;;;;;;;3.35;0.70;;;;;;;;;;5093405;28;20079;-70
2023/08/31 06:51:34;;;;;;;3.17;0.50;;;;;;;;;;5090212;28;20051;-70
2023/08/31 06:54:05;;;;;;;3.60;1.40;;;;;;;;;;5108354;28;20048;-69
2023/08/31 06:56:33;;;;;;;1.73;0.50;;;;;;;;;;5088186;28;20486;-70
2023/08/31 06:59:01;;;;;;;1.30;0.50;;;;;;;;;;5108758;28;20044;-70
2023/08/31 07:01:29;;;;;;;3.85;0.60;;;;;;;;;;5092163;28;20055;-70
2023/08/31 07:03:56;;;;;;;0.55;0.38;;;;;;;;;;5109221;28;20058;-70
2023/08/31 07:06:23;;;;;;;1.70;0.50;;;;;;;;;;5108799;28;20047;-69
2023/08/31 07:08:53;;;;;;;3.83;0.65;;;;;;;;;;5108794;28;20052;-70
2023/08/31 07:11:20;;;;;;;0.77;0.40;;;;;;;;;;5090825;28;20051;-70
2023/08/31 07:13:47;;;;;;;1.52;0.38;;;;;;;;;;5108131;28;20040;-70
2023/08/31 07:16:14;;;;;;;2.08;0.40;;;;;;;;;;5108581;28;20044;-71
2023/08/31 07:18:42;;;;;;;2.22;0.40;;;;;;;;;;5108822;28;20088;-71
2023/08/31 07:21:09;;;;;;;0.80;0.40;;;;;;;;;;5090142;28;20055;-71
2023/08/31 07:23:37;;;;;;;2.92;0.47;;;;;;;;;;5112022;28;20070;-71
2023/08/31 07:26:05;;;;;;;0.65;0.28;;;;;;;;;;5110828;28;20051;-71
2023/08/31 07:28:33;;;;;;;2.25;0.28;;;;;;;;;;5112845;28;20100;-70
2023/08/31 07:31:04;;;;;;;0.20;0.20;;;;;;;;;;5113138;28;20055;-71
2023/08/31 07:33:34;;;;;;;0.20;0.20;;;;;;;;;;5111691;28;20058;-70
2023/08/31 07:36:03;;;;;;;3.47;0.40;;;;;;;;;;5112582;28;20052;-70
2023/08/31 07:38:31;;;;;;;2.60;0.43;;;;;;;;;;5111545;28;20043;-70
2023/08/31 07:40:59;;;;;;;1.45;0.30;;;;;;;;;;5113536;28;20153;-70
2023/08/31 07:43:28;;;;;;;27.50;1.30;;;;;;;;;;5111581;27;20039;-68
2023/08/31 07:45:55;;;;;;;1.23;0.40;;;;;;;;;;5095302;28;20044;-69
2023/08/31 07:48:23;;;;;;;1.95;0.30;;;;;;;;;;5111195;28;20071;-69
2023/08/31 07:50:50;;;;;;;3.20;0.50;;;;;;;;;;5094636;28;20051;-69
2023/08/31 07:53:18;;;;;;;0.88;0.38;;;;;;;;;;5111573;28;20100;-69
2023/08/31 07:55:52;;;;;;;0.60;0.50;;;;;;;;;;5111768;28;20043;-69
2023/08/31 07:58:20;;;;;;;0.80;0.40;;;;;;;;;;5112094;28;20051;-69
2023/08/31 08:00:48;;;;;;;1.00;0.32;;;;;;;;;;5112183;28;20051;-69
2023/08/31 08:03:16;;;;;;;1.00;0.40;;;;;;;;;;5112495;28;20058;-69
2023/08/31 08:05:43;;;;;;;0.60;0.40;;;;;;;;;;5093100;28;20042;-69
2023/08/31 08:08:11;;;;;;;1.33;0.60;;;;;;;;;;5112309;28;20062;-69
2023/08/31 08:10:38;;;;;;;1.13;0.40;;;;;;;;;;5111246;28;20588;-69
2023/08/31 08:13:05;;;;;;;4.40;0.30;;;;;;;;;;5110280;28;20047;-70
2023/08/31 08:15:33;;;;;;;0.90;0.38;;;;;;;;;;5093246;28;20043;-69
2023/08/31 08:18:02;;;;;;;2.63;0.40;;;;;;;;;;5093759;28;20082;-69
2023/08/31 08:20:29;;;;;;;3.63;0.70;;;;;;;;;;5111076;28;20039;-70
2023/08/31 08:22:58;;;;;;;1.27;0.60;;;;;;;;;;5094497;28;20056;-70
2023/08/31 08:25:25;;;;;;;1.80;0.70;;;;;;;;;;5093209;28;20058;-69
2023/08/31 08:27:52;;;;;;;5.40;0.80;;;;;;;;;;5100165;28;20078;-69
2023/08/31 08:30:20;;;;;;;1.08;0.52;;;;;;;;;;5093634;28;20406;-69
2023/08/31 08:32:47;;;;;;;1.80;0.40;;;;;;;;;;5109083;28;20055;-69
2023/08/31 08:35:15;;;;;;;5.55;0.63;;;;;;;;;;5091203;28;20047;-70
2023/08/31 08:37:43;;;;;;;1.58;0.40;;;;;;;;;;5093750;28;20402;-70
2023/08/31 08:40:11;;;;;;;2.35;0.40;;;;;;;;;;5093434;28;20553;-70
2023/08/31 08:42:41;;;;;;;1.27;0.43;;;;;;;;;;5093440;28;20055;-70
2023/08/31 08:45:09;;;;;;;5.65;0.50;;;;;;;;;;5110474;28;20047;-70
2023/08/31 08:47:37;;;;;;;3.92;0.55;;;;;;;;;;5109711;28;20382;-69
2023/08/31 08:50:05;;;;;;;1.15;0.63;;;;;;;;;;5096065;28;20078;-70
2023/08/31 08:52:34;;;;;;;1.10;0.50;;;;;;;;;;5092311;28;20044;-70
2023/08/31 08:55:03;;;;;;;2.53;0.60;;;;;;;;;;5093475;28;20047;-70
2023/08/31 08:57:32;;;;;;;1.58;0.60;;;;;;;;;;5089318;28;20456;-71
2023/08/31 08:59:59;;;;;;;1.65;0.30;;;;;;;;;;5111945;28;20411;-70
2023/08/31 09:02:27;;;;;;;0.82;0.30;;;;;;;;;;5091084;28;20063;-71
2023/08/31 09:04:54;;;;;;;0.88;0.40;;;;;;;;;;5092463;28;20047;-70
2023/08/31 09:07:22;;;;;;;2.10;0.68;;;;;;;;;;5091878;28;20109;-70
2023/08/31 09:09:54;;;;;;;1.98;0.40;;;;;;;;;;5092138;28;20063;-71
2023/08/31 09:12:24;;;;;;;3.50;0.70;;;;;;;;;;5091215;28;20051;-72
2023/08/31 09:15:01;;;;;;;1.75;0.40;;;;;;;;;;5110799;28;20089;-71
2023/08/31 09:17:38;;;;;;;3.50;0.45;;;;;;;;;;5090463;28;20051;-70
2023/08/31 09:20:06;;;;;;;2.30;0.43;;;;;;;;;;5110703;28;20108;-70
2023/08/31 09:22:34;;;;;;;1.10;0.32;;;;;;;;;;5109702;28;20402;-70
2023/08/31 09:25:04;;;;;;;0.98;0.38;;;;;;;;;;5110418;28;20100;-70
2023/08/31 09:27:32;;;;;;;3.83;0.40;;;;;;;;;;5085549;28;20055;-72
2023/08/31 09:30:00;;;;;;;2.75;0.28;;;;;;;;;;5088635;28;20130;-69
2023/08/31 09:32:27;;;;;;;2.33;0.40;;;;;;;;;;5105810;28;20513;-71
2023/08/31 09:34:55;;;;;;;4.03;0.52;;;;;;;;;;5109150;28;20052;-70
2023/08/31 09:37:22;;;;;;;1.85;0.47;;;;;;;;;;5092278;28;20048;-71
2023/08/31 09:39:50;;;;;;;1.25;0.60;;;;;;;;;;5092125;28;21472;-71
2023/08/31 09:42:18;;;;;;;1.38;0.47;;;;;;;;;;5091192;28;20069;-71
2023/08/31 09:44:46;;;;;;;0.88;0.40;;;;;;;;;;5089916;28;20388;-71
2023/08/31 09:47:15;;;;;;;2.47;0.60;;;;;;;;;;5091521;28;20150;-69
2023/08/31 09:49:44;;;;;;;1.95;0.60;;;;;;;;;;5107823;28;20047;-70
2023/08/31 09:52:11;;;;;;;1.98;0.50;;;;;;;;;;5108981;28;20052;-70
2023/08/31 09:54:39;;;;;;;4.25;0.77;;;;;;;;;;5109614;28;20052;-69
2023/08/31 09:57:06;;;;;;;3.40;0.50;;;;;;;;;;5108047;28;20047;-71
2023/08/31 09:59:35;;;;;;;2.85;0.50;;;;;;;;;;5108986;28;20048;-71
2023/08/31 10:02:03;;;;;;;1.50;0.60;;;;;;;;;;5109389;28;20094;-71
2023/08/31 10:04:32;;;;;;;1.40;0.45;;;;;;;;;;5092495;28;20091;-71
2023/08/31 10:07:00;;;;;;;0.90;0.50;;;;;;;;;;5108718;28;20047;-70
2023/08/31 10:09:28;;;;;;;1.25;0.57;;;;;;;;;;5109525;28;20059;-70
2023/08/31 10:11:56;;;;;;;6.00;0.50;;;;;;;;;;5093453;28;20056;-71
2023/08/31 10:14:23;;;;;;;3.13;0.40;;;;;;;;;;5109396;28;20043;-70
2023/08/31 10:16:53;;;;;;;3.40;0.60;;;;;;;;;;5109888;28;20063;-69
2023/08/31 10:19:20;;;;;;;3.00;0.60;;;;;;;;;;5108996;28;20047;-70
2023/08/31 10:21:47;;;;;;;1.55;0.40;;;;;;;;;;5091087;28;20055;-69
2023/08/31 10:24:15;;;;;;;1.75;0.38;;;;;;;;;;5109983;28;20047;-70
2023/08/31 10:26:42;;;;;;;1.90;0.47;;;;;;;;;;5108606;28;20047;-69
2023/08/31 10:29:27;;;;;;;1.42;0.40;;;;;;;;;;5091612;28;20461;-70
2023/08/31 10:31:56;;;;;;;1.23;0.40;;;;;;;;;;5090823;28;20067;-70
2023/08/31 10:34:36;;;;;;;4.10;0.40;;;;;;;;;;5110068;28;20513;-70
2023/08/31 10:37:04;;;;;;;1.95;0.40;;;;;;;;;;5108124;28;20455;-70
2023/08/31 10:39:39;;;;;;;2.85;0.40;;;;;;;;;;5092250;28;20444;-69
2023/08/31 10:42:06;;;;;;;1.98;0.45;;;;;;;;;;5108544;28;20513;-70
2023/08/31 10:44:33;;;;;;;1.25;0.40;;;;;;;;;;5109972;28;20483;-70
2023/08/31 10:47:04;;;;;;;1.33;0.43;;;;;;;;;;5106451;28;20051;-69
2023/08/31 10:49:32;;;;;;;0.30;0.22;;;;;;;;;;5106168;28;20494;-69
2023/08/31 10:52:17;;;;;;;1.23;0.40;;;;;;;;;;5091328;28;20379;-70
2023/08/31 10:54:44;;;;;;;1.95;0.45;;;;;;;;;;5108533;28;20066;-70
2023/08/31 10:57:13;;;;;;;1.65;0.50;;;;;;;;;;5094102;28;20055;-69
2023/08/31 10:59:44;;;;;;;2.88;0.40;;;;;;;;;;5111646;28;20097;-70
2023/08/31 11:02:28;;;;;;;0.82;0.50;;;;;;;;;;5094232;28;20395;-69
2023/08/31 11:04:56;;;;;;;1.80;0.40;;;;;;;;;;5113754;28;20047;-69
2023/08/31 11:07:25;;;;;;;3.50;0.70;;;;;;;;;;5112458;28;20049;-70
2023/08/31 11:09:52;;;;;;;1.35;0.50;;;;;;;;;;5095358;28;20498;-69
2023/08/31 11:12:24;;;;;;;3.55;0.43;;;;;;;;;;5112602;28;20043;-69
2023/08/31 11:14:51;;;;;;;1.63;0.50;;;;;;;;;;5095634;28;20116;-70
2023/08/31 11:17:20;;;;;;;2.42;0.65;;;;;;;;;;5111866;28;20044;-69
2023/08/31 11:19:47;;;;;;;2.08;0.50;;;;;;;;;;5113528;28;20079;-69
2023/08/31 11:22:15;;;;;;;1.55;0.60;;;;;;;;;;5109851;28;20092;-69
2023/08/31 11:24:42;;;;;;;1.80;0.40;;;;;;;;;;5113381;28;20048;-70
2023/08/31 11:27:09;;;;;;;1.23;0.50;;;;;;;;;;5112188;28;20092;-69
2023/08/31 11:29:39;;;;;;;2.17;0.63;;;;;;;;;;5095722;28;20058;-69
2023/08/31 11:32:06;;;;;;;0.85;0.43;;;;;;;;;;5112035;28;20050;-69
2023/08/31 11:34:36;;;;;;;2.10;0.60;;;;;;;;;;5111327;28;20039;-68
2023/08/31 11:37:04;;;;;;;2.05;0.60;;;;;;;;;;5093531;28;20092;-70
2023/08/31 11:39:31;;;;;;;4.38;0.82;;;;;;;;;;5111885;28;20051;-70
2023/08/31 11:41:59;;;;;;;2.88;0.65;;;;;;;;;;5112499;28;20054;-68
2023/08/31 11:44:26;;;;;;;2.88;0.68;;;;;;;;;;5112099;28;20051;-69
2023/08/31 11:46:53;;;;;;;2.15;0.70;;;;;;;;;;5112547;28;20044;-69
2023/08/31 11:49:21;;;;;;;2.80;0.57;;;;;;;;;;5092669;28;20059;-70
2023/08/31 11:51:51;;;;;;;2.42;0.77;;;;;;;;;;5112697;28;20055;-69
2023/08/31 11:54:18;;;;;;;3.28;0.70;;;;;;;;;;5091651;28;20510;-70
2023/08/31 11:56:48;;;;;;;3.72;0.80;;;;;;;;;;5112203;28;20044;-69
2023/08/31 11:59:17;;;;;;;2.05;0.95;;;;;;;;;;5111578;28;20039;-70
2023/08/31 12:01:45;;;;;;;3.55;0.73;;;;;;;;;;5093186;28;20043;-71
2023/08/31 12:04:13;;;;;;;4.20;1.00;;;;;;;;;;5112145;28;20058;-69
2023/08/31 12:06:41;;;;;;;5.82;0.70;;;;;;;;;;5112384;28;20047;-70
2023/08/31 12:09:10;;;;;;;2.03;0.60;;;;;;;;;;5110459;28;20560;-70
2023/08/31 12:11:37;;;;;;;2.17;0.60;;;;;;;;;;5112701;28;20044;-69
2023/08/31 12:14:05;;;;;;;5.38;0.85;;;;;;;;;;5111522;28;20043;-70
2023/08/31 12:16:36;;;;;;;3.17;0.80;;;;;;;;;;5112211;28;20447;-69
2023/08/31 12:19:04;;;;;;;2.42;0.70;;;;;;;;;;5111417;28;20048;-69
2023/08/31 12:21:32;;;;;;;2.10;0.55;;;;;;;;;;5112228;28;20047;-70
2023/08/31 12:23:59;;;;;;;1.98;0.70;;;;;;;;;;5092307;28;20496;-70
2023/08/31 12:26:28;;;;;;;3.65;1.10;;;;;;;;;;5112014;28;20044;-69
2023/08/31 12:28:55;;;;;;;2.55;0.82;;;;;;;;;;5107197;28;20458;-70
2023/08/31 12:31:24;;;;;;;2.05;0.70;;;;;;;;;;5111594;28;20039;-70
2023/08/31 12:33:51;;;;;;;2.53;0.70;;;;;;;;;;5111489;28;20518;-70
2023/08/31 12:36:18;;;;;;;2.40;0.85;;;;;;;;;;5111125;28;20062;-70
2023/08/31 12:38:45;;;;;;;2.95;0.80;;;;;;;;;;5108329;28;20097;-70
2023/08/31 12:41:13;;;;;;;2.67;0.85;;;;;;;;;;5110571;28;20047;-69
2023/08/31 12:43:41;;;;;;;2.65;1.00;;;;;;;;;;5105586;28;20119;-69
2023/08/31 12:46:09;;;;;;;4.00;0.80;;;;;;;;;;5107998;28;20055;-67
2023/08/31 12:48:37;;;;;;;1.00;0.70;;;;;;;;;;5114159;27;20078;-67
2023/08/31 12:51:04;;;;;;;2.70;0.90;;;;;;;;;;5110288;28;20059;-67
2023/08/31 12:53:31;;;;;;;2.17;0.80;;;;;;;;;;5093301;28;20418;-67
2023/08/31 12:55:59;;;;;;;2.67;0.88;;;;;;;;;;5110278;28;20121;-68
2023/08/31 12:58:26;;;;;;;1.30;0.80;;;;;;;;;;5110834;28;20051;-67
2023/08/31 13:00:55;;;;;;;3.20;0.80;;;;;;;;;;5110958;28;20052;-67
2023/08/31 13:03:22;;;;;;;1.50;0.68;;;;;;;;;;5110458;28;20051;-67
2023/08/31 13:05:50;;;;;;;2.42;1.17;;;;;;;;;;5110588;28;20051;-67
2023/08/31 13:08:17;;;;;;;1.25;0.65;;;;;;;;;;5110501;28;20047;-68
2023/08/31 13:10:45;;;;;;;1.60;0.80;;;;;;;;;;5110348;28;20044;-68
2023/08/31 13:13:12;;;;;;;2.00;1.10;;;;;;;;;;5111208;28;20054;-68
2023/08/31 13:15:39;;;;;;;1.95;0.70;;;;;;;;;;5110770;28;20368;-67
2023/08/31 13:18:08;;;;;;;2.90;0.90;;;;;;;;;;5110170;28;20047;-67
2023/08/31 13:20:35;;;;;;;3.55;0.80;;;;;;;;;;5107214;28;20052;-69
2023/08/31 13:23:03;;;;;;;3.13;0.93;;;;;;;;;;5107779;28;20100;-67
2023/08/31 13:25:30;;;;;;;1.67;0.80;;;;;;;;;;5090757;28;20104;-68
2023/08/31 13:27:58;;;;;;;3.17;0.90;;;;;;;;;;5108641;28;20130;-68
2023/08/31 13:30:25;;;;;;;3.30;0.82;;;;;;;;;;5089938;28;20066;-67
2023/08/31 13:32:52;;;;;;;2.30;0.75;;;;;;;;;;5109430;28;20058;-67
2023/08/31 13:35:21;;;;;;;2.42;0.70;;;;;;;;;;5109464;28;20047;-68
2023/08/31 13:37:48;;;;;;;3.13;0.88;;;;;;;;;;5104656;28;20130;-68
2023/08/31 13:40:15;;;;;;;1.23;0.50;;;;;;;;;;5110120;28;20402;-68
2023/08/31 13:42:54;;;;;;;3.67;0.70;;;;;;;;;;5110366;28;20059;-67
2023/08/31 13:45:21;;;;;;;2.75;0.73;;;;;;;;;;5110027;28;20521;-67
2023/08/31 13:47:49;;;;;;;3.28;0.77;;;;;;;;;;5109477;28;20135;-67
2023/08/31 13:50:17;;;;;;;3.80;1.08;;;;;;;;;;5115893;27;20175;-68
2023/08/31 13:52:46;;;;;;;4.97;0.73;;;;;;;;;;5109246;28;20089;-67
2023/08/31 13:55:13;;;;;;;6.25;1.05;;;;;;;;;;5092023;28;20055;-68
2023/08/31 13:57:43;;;;;;;3.28;1.00;;;;;;;;;;5105945;28;20047;-67
2023/08/31 14:00:11;;;;;;;5.38;1.00;;;;;;;;;;5110855;28;20669;-68
2023/08/31 14:02:38;;;;;;;5.95;1.00;;;;;;;;;;5110250;28;20079;-67
2023/08/31 14:05:08;;;;;;;3.22;1.08;;;;;;;;;;5109340;28;20047;-68
2023/08/31 14:07:35;;;;;;;6.80;0.98;;;;;;;;;;5109290;28;20054;-68
2023/08/31 14:10:05;;;;;;;2.15;0.90;;;;;;;;;;5110255;28;20491;-68
2023/08/31 14:12:32;;;;;;;1.55;0.77;;;;;;;;;;5108913;28;20043;-68
2023/08/31 14:15:00;;;;;;;4.32;1.10;;;;;;;;;;5110234;28;20047;-68
2023/08/31 14:17:28;;;;;;;4.40;1.08;;;;;;;;;;5090821;28;20390;-68
2023/08/31 14:19:55;;;;;;;3.45;1.00;;;;;;;;;;5110588;28;20054;-68
2023/08/31 14:22:23;;;;;;;2.88;0.88;;;;;;;;;;5091146;28;20047;-67
2023/08/31 14:24:50;;;;;;;5.28;1.00;;;;;;;;;;5110212;28;20087;-68
2023/08/31 14:27:19;;;;;;;2.40;0.85;;;;;;;;;;5110392;28;20040;-67
2023/08/31 14:29:46;;;;;;;3.03;0.90;;;;;;;;;;5091219;28;20059;-68
2023/08/31 14:32:13;;;;;;;5.03;1.10;;;;;;;;;;5113571;28;20506;-67
2023/08/31 14:34:40;;;;;;;1.65;0.88;;;;;;;;;;5113705;28;20043;-67
2023/08/31 14:37:08;;;;;;;2.30;0.90;;;;;;;;;;5091352;28;20054;-67
2023/08/31 14:39:36;;;;;;;2.55;0.93;;;;;;;;;;5113443;28;20584;-66
2023/08/31 14:42:03;;;;;;;2.75;0.90;;;;;;;;;;5114779;28;20122;-67
2023/08/31 14:44:32;;;;;;;2.67;0.85;;;;;;;;;;5112688;28;20090;-67
2023/08/31 14:46:59;;;;;;;3.47;1.00;;;;;;;;;;5114280;28;20051;-67
2023/08/31 14:49:26;;;;;;;3.55;0.80;;;;;;;;;;5109851;28;21260;-67